Weather observations for the past three days for
Batesville Panola County
Imperial (Metric)
Date Time (cdt) Wind (mph) Vis. (mi.) Weather Sky Cond. Temperature (ºF) Relative Humidity Wind Chill (°F) Heat Index (°F) Pressure Precipitation (in)
Air Dwpt 6 hour altimeter (in) sea level (mb) 1 hr 3 hr 6 hr
Max. Min.
03 01:15 Calm 10.00 Mostly Cloudy BKN070 75.2 73.4 94% 74 29.99 0.0
03 00:55 Calm 10.00 A Few Clouds FEW070 75.2 73.4 94% 74 29.99 0.0
03 00:35 Calm 10.00 Fair CLR 75.2 73.4 94% 74 29.99 0.0
03 00:15 Calm 10.00 Fair CLR 77 73.4 89% 78 29.99 0.0
02 23:55 Calm 10.00 Fair CLR 77 75.2 94% 78 29.99 0.0
02 23:35 Calm 10.00 Fair CLR 77 75.2 94% 78 29.99 0.0
02 23:15 Calm 10.00 Fair CLR 77 75.2 94% 78 29.99 0.0
02 22:55 Calm 10.00 Fair CLR 78.8 75.2 89% 82 29.98 0.0
02 22:35 Calm 10.00 Fair CLR 78.8 75.2 89% 82 29.98 0.0
02 22:15 Calm 10.00 Fair CLR 78.8 75.2 89% 82 29.99 0.0
02 21:55 Calm 10.00 Fair CLR 80.6 75.2 84% 86 29.99 0.0
02 21:35 Calm 10.00 Fair CLR 80.6 75.2 84% 86 29.98 0.0
02 21:15 Calm 10.00 Fair CLR 80.6 77 89% 87 29.97 0.0
02 20:55 Calm 10.00 A Few Clouds FEW080 82.4 77 84% 91 29.97 0.0
02 20:35 Calm 10.00 Mostly Cloudy BKN080 84.2 77 79% 94 29.96 0.0
02 20:15 Calm 10.00 Overcast OVC080 86 77 75% 97 29.96 0.0
02 19:55 Calm 10.00 Overcast OVC075 86 77 75% 97 29.95 0.0
02 19:35 Calm 10.00 Mostly Cloudy BKN075 BKN085 87.8 75.2 66% 98 29.95 0.0
02 19:15 Calm 10.00 Mostly Cloudy BKN075 BKN085 89.6 75.2 63% 100 29.95 0.0
02 18:55 Calm 10.00 Partly Cloudy SCT075 SCT085 93.2 73.4 53% 103 29.95 0.0
02 18:35 Calm 10.00 Partly Cloudy SCT075 SCT085 95 71.6 47% 103 29.95 0.0
02 18:15 Calm 10.00 Partly Cloudy SCT075 95 71.6 47% 103 29.95 0.0
02 17:55 Calm 10.00 A Few Clouds FEW075 95 69.8 44% 101 29.95 0.0
02 17:35 Calm 10.00 Fair CLR 96.8 69.8 42% 103 29.95 0.0
02 17:15 Vrbl 3 G 15 10.00 Partly Cloudy FEW070 SCT085 95 69.8 44% 101 29.96 0.0
02 16:55 Calm 10.00 A Few Clouds FEW080 102.2 69.8 35% 110 29.95 0.0
02 16:35 Vrbl 5 10.00 Fair CLR 100.4 68 35% 106 29.96 0.0
02 16:15 Calm 10.00 Fair CLR 100.4 68 35% 106 29.96 0.0
02 15:55 Calm 10.00 Fair CLR 98.6 66.2 35% 103 29.96 0.0
02 15:35 Calm 10.00 Fair CLR 98.6 68 37% 104 29.97 0.0
02 15:15 Calm 10.00 A Few Clouds FEW070 FEW080 98.6 69.8 39% 106 29.98 0.0
02 14:55 Vrbl 5 10.00 Partly Cloudy SCT070 SCT080 98.6 69.8 39% 106 29.98 0.0
02 14:35 Vrbl 3 10.00 Mostly Cloudy BKN070 100.4 66.2 33% 105 29.99 0.0
02 14:15 Calm 10.00 Partly Cloudy SCT065 SCT075 98.6 66.2 35% 103 30 0.0
02 13:55 S 7 10.00 Partly Cloudy SCT065 SCT075 98.6 68 37% 104 30.01 0.0
02 13:35 Vrbl 7 10.00 Partly Cloudy SCT065 98.6 68 37% 104 30.01 0.0
02 13:15 SW 6 G 12 10.00 A Few Clouds FEW070 98.6 68 37% 104 30.02 0.0
02 12:50 Calm 10.00 A Few Clouds FEW060 96.8 68 39% 102 30.04 0.0
02 12:35 Vrbl 3 10.00 A Few Clouds FEW060 98.6 68 37% 104 30.05 0.0
02 12:15 SE 5 10.00 A Few Clouds FEW055 95 69.8 44% 101 30.05 0.0
02 11:55 Calm 10.00 Fair CLR 96.8 71.6 44% 105 30.06 0.0
02 11:35 Vrbl 5 10.00 A Few Clouds FEW050 95 69.8 44% 101 30.07 0.0
02 11:15 Calm 10.00 Fair CLR 93.2 71.6 50% 101 30.07 0.0
02 10:55 Calm 10.00 Fair CLR 93.2 71.6 50% 101 30.08 0.0
02 10:35 Calm 10.00 Fair CLR 91.4 75.2 59% 103 30.08 0.0
02 10:15 Calm 10.00 Fair CLR 89.6 73.4 59% 98 30.08 0.0
02 09:55 Calm 10.00 Fair CLR 87.8 73.4 62% 96 30.08 0.0
02 09:35 Calm 10.00 Fair CLR 86 73.4 66% 93 30.08 0.0
02 09:15 Calm 10.00 Fair CLR 84.2 73.4 70% 91 30.08 0.0
02 08:55 Calm 10.00 Fair CLR 82.4 73.4 74% 88 30.08 0.0
02 08:35 Calm 10.00 Fair CLR 80.6 73.4 79% 85 30.08 0.0
02 08:15 Calm 10.00 Fair CLR 77 73.4 89% 78 30.08 0.0
02 07:55 Calm 8.00 Fair CLR 75.2 71.6 89% 75 30.08 0.0
02 07:35 Calm 10.00 Fair CLR 73.4 71.6 94% 30.07 0.0
02 07:15 Calm 9.00 Fair CLR 71.6 71.6 100% 30.07 0.0
02 06:55 Calm 8.00 Fair CLR 71.6 71.6 100% 30.07 0.0
02 06:35 Calm 8.00 Fair CLR 71.6 69.8 94% 30.06 0.0
02 06:15 Calm 7.00 Fair CLR 71.6 69.8 94% 30.05 0.0
02 05:55 Calm 6.00 Fog/Mist CLR 71.6 69.8 94% 30.04 0.0
02 05:35 Calm 6.00 Fog/Mist CLR 71.6 69.8 94% 30.04 0.0
02 05:15 Calm 8.00 Fair CLR 73.4 71.6 94% 30.04 0.0
02 04:55 Calm 10.00 A Few Clouds FEW070 FEW080 73.4 71.6 94% 30.04 0.0
02 04:35 Calm 10.00 Mostly Cloudy BKN065 BKN075 73.4 71.6 94% 30.04 0.0
02 04:15 Calm 10.00 Mostly Cloudy BKN065 71.6 71.6 100% 30.04 0.0
02 03:55 Calm 10.00 Fair CLR 71.6 71.6 100% 30.03 0.0
02 03:35 Calm 10.00 Fair CLR 73.4 71.6 94% 30.02 0.0
02 03:15 Calm 8.00 Fair CLR 73.4 71.6 94% 30.02 0.0
02 02:55 Calm 10.00 Fair CLR 73.4 71.6 94% 30.02 0.0
02 02:35 Calm 10.00 Fair CLR 73.4 71.6 94% 30.02 0.0
02 02:15 Calm 10.00 Fair CLR 73.4 71.6 94% 30.02 0.0
02 01:55 Calm 10.00 Fair CLR 73.4 71.6 94% 30.02 0.0
02 01:35 Calm 10.00 Fair CLR 73.4 73.4 100% 30.02 0.0
02 01:15 Calm 10.00 Fair CLR 75.2 73.4 94% 74 30.02 0.0
02 00:55 Calm 10.00 Fair CLR 75.2 73.4 94% 74 30.02 0.0
02 00:30 Calm 10.00 Fair CLR 75.2 73.4 94% 74 30.02 0.0
02 00:15 Calm 10.00 Fair CLR 75.2 73.4 94% 74 30.02 0.0
01 23:55 Calm 10.00 Fair CLR 75.2 73.4 94% 74 30.02 0.0
01 23:35 Calm 10.00 Fair CLR 75.2 73.4 94% 74 30.02 0.0
01 23:15 Calm 10.00 Fair CLR 77 73.4 89% 78 30.02 0.0
01 22:55 Calm 10.00 Fair CLR 77 73.4 89% 78 30.02 0.0
01 22:35 Calm 10.00 Fair CLR 77 75.2 94% 78 30.02 0.0
01 22:15 Calm 10.00 Fair CLR 77 75.2 94% 78 30.02 0.0
01 21:55 Calm 10.00 Fair CLR 77 75.2 94% 78 30.01 0.0
01 21:35 Calm 10.00 Fair CLR 78.8 75.2 89% 82 30.01 0.0
01 21:15 Calm 10.00 Fair CLR 78.8 75.2 89% 82 30 0.0
01 20:55 Calm 10.00 Fair CLR 78.8 75.2 89% 82 29.99 0.0
01 20:35 Calm 10.00 Fair CLR 80.6 75.2 84% 86 29.99 0.0
01 20:15 Calm 10.00 Fair CLR 80.6 75.2 84% 86 29.98 0.0
01 19:55 Calm 10.00 Fair CLR 82.4 75.2 79% 89 29.98 0.0
01 19:35 Calm 10.00 Fair CLR 84.2 75.2 74% 92 29.98 0.0
01 19:15 Calm 10.00 Fair CLR 86 75.2 70% 95 29.98 0.0
01 18:55 Calm 10.00 Fair CLR 87.8 75.2 66% 98 29.98 0.0
01 18:35 Calm 10.00 Fair CLR 87.8 77 70% 100 29.98 0.0
01 18:15 Calm 10.00 Fair CLR 87.8 75.2 66% 98 29.98 0.0
01 17:55 Calm 10.00 Partly Cloudy SCT110 89.6 75.2 63% 100 29.99 0.0
01 17:35 Calm 10.00 A Few Clouds FEW110 95 69.8 44% 101 29.99 0.0
01 17:15 Calm 10.00 A Few Clouds FEW100 95 66.2 39% 98 29.99 0.0
01 16:55 SE 5 10.00 Fair CLR 96.8 68 39% 102 29.99 0.0
01 16:35 Calm 10.00 Fair CLR 96.8 68 39% 102 29.99 0.0
01 16:15 Calm 10.00 A Few Clouds FEW070 FEW110 95 68 41% 100 30 0.0
01 15:55 Calm 10.00 A Few Clouds FEW070 FEW100 95 68 41% 100 30 0.0
01 15:35 Calm 10.00 A Few Clouds FEW065 FEW110 95 68 41% 100 30.01 0.0
01 15:15 Calm 10.00 A Few Clouds FEW060 FEW100 96.8 68 39% 102 30.01 0.0
01 14:55 Vrbl 5 10.00 A Few Clouds FEW060 96.8 69.8 42% 103 30.01 0.0
01 14:35 Calm 10.00 Fair CLR 95 68 41% 100 30.02 0.0
01 14:15 S 5 10.00 Fair CLR 96.8 69.8 42% 103 30.02 0.0
01 13:55 Calm 10.00 Fair CLR 98.6 68 37% 104 30.03 0.0
01 13:35 Vrbl 5 10.00 Fair CLR 96.8 69.8 42% 103 30.04 0.0
01 13:15 S 3 10.00 Fair CLR 96.8 69.8 42% 103 30.05 0.0
01 12:55 S 3 10.00 A Few Clouds FEW055 95 69.8 44% 101 30.06 0.0
01 12:35 S 7 10.00 Partly Cloudy SCT055 96.8 71.6 44% 105 30.06 0.0
01 12:15 W 3 10.00 A Few Clouds FEW050 93.2 71.6 50% 101 30.07 0.0
01 11:55 W 5 10.00 A Few Clouds FEW050 93.2 71.6 50% 101 30.08 0.0
01 11:35 Calm 10.00 Fair CLR 93.2 69.8 47% 99 30.08 0.0
01 11:15 Calm 10.00 Fair CLR 93.2 71.6 50% 101 30.09 0.0
01 10:55 Vrbl 5 10.00 Fair CLR 93.2 73.4 53% 103 30.09 0.0
01 10:35 Calm 10.00 Fair CLR 91.4 73.4 56% 100 30.1 0.0
01 10:15 Calm 10.00 Fair CLR 89.6 73.4 59% 98 30.1 0.0
01 09:55 Calm 10.00 Fair CLR 87.8 73.4 62% 96 30.1 0.0
01 09:35 Calm 10.00 Fair CLR 86 73.4 66% 93 30.1 0.0
01 09:15 Calm 10.00 Fair CLR 86 73.4 66% 93 30.1 0.0
01 08:55 Calm 10.00 Fair CLR 82.4 73.4 74% 88 30.1 0.0
01 08:35 Calm 10.00 Fair CLR 80.6 73.4 79% 85 30.09 0.0
01 08:15 Calm 10.00 Fair CLR 78.8 73.4 84% 82 30.09 0.0
01 07:55 Calm 10.00 Fair CLR 75.2 73.4 94% 74 30.09 0.0
01 07:35 Calm 10.00 Fair CLR 73.4 71.6 94% 30.09 0.0
01 07:15 Calm 9.00 Fair CLR 71.6 71.6 100% 30.09 0.0
01 06:55 Calm 8.00 Fair CLR 71.6 69.8 94% 30.08 0.0
01 06:35 Calm 9.00 Fair CLR 71.6 69.8 94% 30.08 0.0
01 06:15 Calm 9.00 Fair CLR 71.6 69.8 94% 30.07 0.0
01 05:55 Calm 10.00 Fair CLR 71.6 69.8 94% 30.06 0.0
01 05:35 Calm 10.00 Fair CLR 71.6 69.8 94% 30.06 0.0
01 05:15 Calm 9.00 Fair CLR 71.6 69.8 94% 30.06 0.0
01 04:55 Calm 9.00 Fair CLR 71.6 71.6 100% 30.06 0.0
01 04:35 Calm 10.00 Fair CLR 71.6 71.6 100% 30.05 0.0
01 04:15 Calm 8.00 Fair CLR 71.6 71.6 100% 30.05 0.0
01 03:55 Calm 8.00 Fair CLR 73.4 71.6 94% 30.05 0.0
01 03:35 Calm 10.00 Fair CLR 73.4 71.6 94% 30.04 0.0
01 03:15 Calm 10.00 Fair CLR 73.4 71.6 94% 30.04 0.0
01 02:55 Calm 10.00 Fair CLR 73.4 71.6 94% 30.04 0.0
01 02:35 Calm 10.00 Fair CLR 73.4 71.6 94% 30.05 0.0
01 02:15 Calm 10.00 Fair CLR 73.4 71.6 94% 30.04 0.0
01 01:55 Calm 10.00 Fair CLR 73.4 71.6 94% 30.04 0.0
01 01:35 Calm 10.00 A Few Clouds FEW044 75.2 73.4 94% 74 30.04 0.0
01 01:15 Calm 10.00 Fair CLR 75.2 71.6 89% 75 30.04 0.0
01 00:55 Calm 10.00 Fair CLR 75.2 73.4 94% 74 30.04 0.0
01 00:35 Calm 10.00 Fair CLR 75.2 73.4 94% 74 30.04 0.0
01 00:15 Calm 10.00 Fair CLR 75.2 73.4 94% 74 30.03 0.0
31 23:55 Calm 10.00 Fair CLR 75.2 73.4 94% 74 30.03 0.0
31 23:35 Calm 10.00 Fair CLR 75.2 73.4 94% 74 30.03 0.0
31 23:15 Calm 10.00 Fair CLR 77 73.4 89% 78 30.03 0.0
31 22:55 Calm 10.00 Fair CLR 77 73.4 89% 78 30.03 0.0
31 22:35 Calm 10.00 Fair CLR 77 75.2 94% 78 30.03 0.0
31 22:15 Calm 10.00 Fair CLR 77 73.4 89% 78 30.03 0.0
31 21:55 Calm 10.00 Fair CLR 78.8 75.2 89% 82 30.03 0.0
31 21:35 Calm 10.00 Fair CLR 78.8 75.2 89% 82 30.03 0.0
31 21:15 Calm 10.00 Fair CLR 78.8 75.2 89% 82 30.02 0.0
31 20:55 Calm 10.00 Fair CLR 80.6 75.2 84% 86 30.02 0.0
31 20:35 Calm 10.00 Fair CLR 80.6 73.4 79% 85 30.01 0.0
31 20:15 Calm 10.00 Fair CLR 82.4 73.4 74% 88 30.01 0.0
31 19:55 Calm 10.00 Fair CLR 84.2 73.4 70% 91 30 0.0
31 19:35 Calm 10.00 Fair CLR 86 73.4 66% 93 30 0.0
31 19:15 Calm 10.00 Fair CLR 91.4 73.4 56% 100 30 0.0
31 18:35 Calm 10.00 Fair CLR 95 69.8 44% 101 30 0.0
31 18:15 Calm 10.00 Fair CLR 95 69.8 44% 101 30 0.0
31 17:55 Calm 10.00 Fair CLR 95 71.6 47% 103 30 0.0
31 17:35 Calm 10.00 A Few Clouds FEW080 95 71.6 47% 103 30 0.0
31 17:15 Calm 10.00 Partly Cloudy SCT080 SCT120 95 69.8 44% 101 30.01 0.0
31 16:55 Calm 10.00 Mostly Cloudy FEW070 BKN080 98.6 69.8 39% 106 30.01 0.0
31 16:35 Calm 10.00 Mostly Cloudy BKN065 BKN080 100.4 69.8 37% 108 30.01 0.0
31 16:15 Vrbl 5 10.00 Mostly Cloudy BKN065 BKN080 98.6 68 37% 104 30.01 0.0
31 15:55 Calm 10.00 Partly Cloudy SCT065 96.8 66.2 37% 100 30.02 0.0
31 15:35 NW 5 10.00 Partly Cloudy SCT060 96.8 69.8 42% 103 30.02 0.0
31 15:15 Vrbl 3 10.00 Partly Cloudy SCT060 96.8 68 39% 102 30.03 0.0
31 14:55 Calm 10.00 A Few Clouds FEW060 96.8 69.8 42% 103 30.03 0.0
31 14:35 Calm 10.00 Mostly Cloudy BKN060 96.8 69.8 42% 103 30.04 0.0
31 14:15 Calm 10.00 Partly Cloudy SCT055 SCT065 SCT075 96.8 69.8 42% 103 30.04 0.0
31 13:55 Calm 10.00 Partly Cloudy FEW055 SCT065 SCT075 95 69.8 44% 101 30.05 0.0
31 13:35 Vrbl 5 10.00 A Few Clouds FEW055 95 71.6 47% 103 30.06 0.0
31 13:15 NW 6 10.00 Partly Cloudy SCT050 93.2 71.6 50% 101 30.07 0.0
31 12:55 NW 5 10.00 Mostly Cloudy BKN050 BKN060 93.2 71.6 50% 101 30.08 0.0
31 12:35 Calm 10.00 Partly Cloudy SCT050 SCT060 91.4 69.8 49% 97 30.09 0.0
31 12:15 Vrbl 3 10.00 Mostly Cloudy BKN047 BKN055 93.2 71.6 50% 101 30.09 0.0
31 11:55 Vrbl 3 10.00 Mostly Cloudy BKN046 BKN060 93.2 69.8 47% 99 30.1 0.0
31 11:35 NW 3 10.00 Mostly Cloudy SCT042 BKN060 91.4 71.6 52% 99 30.11 0.0
31 11:15 Calm 10.00 Fair CLR 91.4 71.6 52% 99 30.1 0.0
31 10:55 NW 5 10.00 Fair CLR 89.6 73.4 59% 98 30.11 0.0
31 10:35 Vrbl 5 10.00 Fair CLR 89.6 73.4 59% 98 30.11 0.0
31 10:15 NW 6 10.00 Fair CLR 87.8 73.4 62% 96 30.11 0.0
31 09:55 Calm 10.00 Fair CLR 86 73.4 66% 93 30.11 0.0
31 09:35 Calm 10.00 Fair CLR 86 73.4 66% 93 30.1 0.0
31 09:15 Calm 10.00 Fair CLR 84.2 73.4 70% 91 30.1 0.0
31 08:55 Calm 10.00 Fair CLR 80.6 73.4 79% 85 30.1 0.0
31 08:35 Calm 10.00 Fair CLR 78.8 73.4 84% 82 30.1 0.0
31 08:15 Calm 10.00 Fair CLR 77 71.6 83% 78 30.09 0.0
31 07:55 Calm 10.00 Fair CLR 73.4 71.6 94% 30.09 0.0
31 07:35 Calm 10.00 Fair CLR 71.6 69.8 94% 30.09 0.0
31 07:15 Calm 10.00 Fair CLR 69.8 68 94% 30.08 0.0
31 06:55 Calm 8.00 Fair CLR 69.8 68 94% 30.07 0.0
31 06:35 Calm 7.00 Fair CLR 69.8 68 94% 30.07 0.0
31 06:15 Calm 9.00 Fair CLR 69.8 68 94% 30.06 0.0
31 05:55 Calm 6.00 Fog/Mist CLR 69.8 68 94% 30.06 0.0
31 05:35 Calm 8.00 Fair CLR 69.8 68 94% 30.05 0.0
31 05:15 Calm 7.00 Fair CLR 69.8 68 94% 30.05 0.0
31 04:55 Calm 9.00 Fair CLR 69.8 68 94% 30.04 0.0
31 04:35 Calm 9.00 Fair CLR 69.8 68 94% 30.04 0.0
31 04:15 Calm 10.00 Fair CLR 69.8 68 94% 30.04 0.0
31 03:55 Calm 9.00 Fair CLR 69.8 69.8 100% 30.03 0.0
31 03:35 Calm 10.00 Fair CLR 71.6 69.8 94% 30.03 0.0
31 03:15 Calm 10.00 Fair CLR 71.6 69.8 94% 30.03 0.0
31 02:55 Calm 10.00 Fair CLR 71.6 69.8 94% 30.03 0.0
31 02:35 Calm 9.00 Fair CLR 71.6 69.8 94% 30.03 0.0
31 02:15 Calm 10.00 Fair CLR 71.6 69.8 94% 30.03 0.0
31 01:55 Calm 10.00 Fair CLR 71.6 69.8 94% 30.04 0.0
31 01:35 Calm 10.00 Fair CLR 71.6 69.8 94% 30.04 0.0
Date Time (cdt) Wind (mph) Vis. (mi.) Weather Sky Cond. Air Dwpt Max. Min. Relative Humidity Wind Chill (°F) Heat Index (°F) altimeter (in) sea level (mb) 1 hr 3 hr 6 hr
6 hour
Temperature (ºF) Pressure Precipitation (in)